Flight Track Log - Related Links

Times and Time Zones

All times are in EDT time to prevent confusion due to time zone crossing. See the N300BS flight status page for this flight to view local times or setup timezone preferences in your user account.

Time Position Orientation Groundspeed Altitude Reporting Facility
EDT Latitude Longitude Course Direction KTS MPH feet Rate Location/Type
Wed 02:10:03 PM 48.6861 -93.1581 234° Southwest 127 146 4,100  Level Minneapolis Center
Wed 02:11:05 PM 48.6625 -93.2069 234° Southwest 127 146 3,800 -5 Descending Minneapolis Center
Wed 02:13:00 PM 48.6333 -93.2253 203° Southwest  Level Estimated
Wed 02:20:00 PM 48.5268 -93.2924 203° Southwest  Level Estimated
Wed 02:21:00 PM 48.5116 -93.3019 203° Southwest  Level Estimated
Wed 02:22:00 PM 48.4964 -93.3114 203° Southwest  Level Estimated
Wed 02:23:00 PM 48.4812 -93.3210 203° Southwest  Level Estimated
Wed 02:24:00 PM 48.4659 -93.3305 203° Southwest  Level Estimated
Wed 02:25:00 PM 48.4507 -93.3400 203° Southwest  Level Estimated
Wed 02:26:00 PM 48.4355 -93.3496 203° Southwest  Level Estimated
Wed 02:27:00 PM 48.4203 -93.3591 203° Southwest  Level Estimated
Wed 02:28:00 PM 48.4050 -93.3686 203° Southwest  Level Estimated
Wed 02:29:00 PM 48.3898 -93.3781 203° Southwest  Level Estimated
Wed 02:30:00 PM 48.3746 -93.3876 203° Southwest  Level Estimated
Wed 02:31:00 PM 48.3593 -93.3971 202° Southwest  Level Estimated
Wed 02:32:00 PM 48.3441 -93.4066 202° Southwest  Level Estimated
Wed 02:33:00 PM 48.3289 -93.4161 202° Southwest  Level Estimated
Wed 02:34:00 PM 48.3137 -93.4255 202° Southwest  Level Estimated
Wed 02:35:00 PM 48.2984 -93.4350 202° Southwest  Level Estimated
Wed 02:36:00 PM 48.2832 -93.4445 202° Southwest  Level Estimated
Wed 02:37:00 PM 48.2680 -93.4539 202° Southwest  Level Estimated
Wed 02:38:00 PM 48.2527 -93.4634 202° Southwest  Level Estimated
Wed 02:39:00 PM 48.2375 -93.4728 202° Southwest  Level Estimated
Wed 02:40:00 PM 48.2223 -93.4823 202° Southwest  Level Estimated
Wed 02:41:00 PM 48.2070 -93.4917 202° Southwest  Level Estimated
Wed 02:42:00 PM 48.1918 -93.5011 202° Southwest  Level Estimated
Wed 02:43:00 PM 48.1766 -93.5106 202° Southwest  Level Estimated
Wed 02:44:00 PM 48.1613 -93.5200 202° Southwest  Level Estimated
Wed 02:45:00 PM 48.1461 -93.5294 202° Southwest  Level Estimated
Wed 02:46:00 PM 48.1308 -93.5388 202° Southwest  Level Estimated
Wed 02:47:00 PM 48.1156 -93.5482 202° Southwest  Level Estimated
Wed 02:48:00 PM 48.1003 -93.5576 202° Southwest  Level Estimated
Wed 02:49:00 PM 48.0851 -93.5670 202° Southwest  Level Estimated
Wed 02:49:36 PM 48.4458 -93.4919 205° Southwest 95 109 3,900  Level Minneapolis Center
Wed 02:50:00 PM 48.0699 -93.5764 202° Southwest  Level Estimated
Wed 02:50:38 PM 48.4219 -93.5156 213° Southwest 98 113 4,000  Level Minneapolis Center
Wed 02:51:00 PM 48.0546 -93.5857 202° Southwest  Level Estimated
Wed 02:51:40 PM 48.3947 -93.5381 209° Southwest 103 119 4,000  Level Minneapolis Center
Wed 02:52:00 PM 48.0394 -93.5951 202° Southwest  Level Estimated
Wed 02:52:42 PM 48.3700 -93.5558 206° Southwest 111 128 4,000  Level Minneapolis Center
Wed 02:53:00 PM 48.0241 -93.6045 202° Southwest  Level Estimated
Wed 02:53:44 PM 48.3292 -93.5769 199° South 114 131 4,000  Level Minneapolis Center
Wed 02:54:46 PM 48.2997 -93.5922 199° South 113 130 4,000  Level Minneapolis Center
Wed 02:55:49 PM 48.2703 -93.6064 198° South 112 129 4,000  Level Minneapolis Center
Wed 02:56:51 PM 48.2414 -93.6222 200° South 112 129 4,000  Level Minneapolis Center
Wed 02:58:05 PM 48.2058 -93.6403 199° South 112 129 4,000  Level Minneapolis Center
Wed 02:59:07 PM 48.1775 -93.6542 198° South 110 127 4,000  Level Minneapolis Center
Wed 03:00:09 PM 48.1428 -93.6717 199° South 110 127 4,000  Level Minneapolis Center
Wed 03:01:12 PM 48.1147 -93.6878 201° Southwest 110 127 4,000  Level Minneapolis Center
Wed 03:02:26 PM 48.0783 -93.7047 197° South 111 128 4,000  Level Minneapolis Center
Wed 03:03:28 PM 48.0522 -93.7186 200° South 108 124 4,000  Level Minneapolis Center
Wed 03:04:30 PM 48.0269 -93.7328 201° Southwest 103 119 4,000  Level Minneapolis Center
Wed 03:05:44 PM 47.9950 -93.7469 197° South 100 115 4,000  Level Minneapolis Center
Wed 03:06:47 PM 47.9625 -93.7642 200° South 102 117 4,000  Level Minneapolis Center
Wed 03:07:49 PM 47.9347 -93.7789 200° South 103 119 4,000  Level Minneapolis Center
Wed 03:08:51 PM 47.9069 -93.7933 199° South 105 121 4,000  Level Minneapolis Center
Wed 03:09:53 PM 47.8786 -93.8072 198° South 106 122 4,000  Level Minneapolis Center
Wed 03:11:08 PM 47.8453 -93.8236 198° South 106 122 4,000  Level Minneapolis Center
Wed 03:12:10 PM 47.8128 -93.8403 199° South 105 121 4,000  Level Minneapolis Center
Wed 03:13:12 PM 47.7853 -93.8547 199° South 105 121 4,000  Level Minneapolis Center
Wed 03:14:14 PM 47.7589 -93.8683 199° South 103 119 4,000  Level Minneapolis Center
Wed 03:15:17 PM 47.7333 -93.8814 199° South 101 116 4,000  Level Minneapolis Center
Wed 03:16:19 PM 47.7017 -93.8961 197° South 99 114 4,000  Level Minneapolis Center
Wed 03:17:21 PM 47.6764 -93.9092 199° South 98 113 4,000  Level Minneapolis Center
Wed 03:18:23 PM 47.6519 -93.9219 199° South 96 110 4,000  Level Minneapolis Center
Wed 03:19:25 PM 47.6272 -93.9344 199° South 95 109 4,000  Level Minneapolis Center
Wed 03:20:27 PM 47.6011 -93.9472 198° South 96 110 4,000  Level Minneapolis Center
Wed 03:21:29 PM 47.5747 -93.9608 199° South 98 113 4,000  Level Minneapolis Center
Wed 03:22:31 PM 47.5431 -93.9772 199° South 100 115 4,000  Level Minneapolis Center
Wed 03:23:33 PM 47.5219 -93.9875 198° South 100 115 4,000  Level Minneapolis Center
Wed 03:24:36 PM 47.4894 -94.0039 199° South 101 116 4,000  Level Minneapolis Center
Wed 03:25:38 PM 47.4642 -94.0156 197° South 100 115 4,000  Level Minneapolis Center
Wed 03:26:40 PM 47.4381 -94.0297 200° South 99 114 4,000  Level Minneapolis Center
Wed 03:27:42 PM 47.4053 -94.0458 198° South 101 116 4,000  Level Minneapolis Center
Wed 03:28:44 PM 47.3833 -94.0561 198° South 102 117 4,000  Level Minneapolis Center
Wed 03:29:46 PM 47.3506 -94.0722 198° South 103 119 4,000  Level Minneapolis Center
Wed 03:30:48 PM 47.3292 -94.0844 201° Southwest 104 120 4,000  Level Minneapolis Center
Wed 03:31:51 PM 47.2981 -94.0994 198° South 101 116 4,000  Level Minneapolis Center
Wed 03:32:53 PM 47.2714 -94.1117 197° South 100 115 4,000  Level Minneapolis Center
Wed 03:33:55 PM 47.2389 -94.1289 200° South 102 117 4,000  Level Minneapolis Center
Wed 03:34:57 PM 47.2128 -94.1411 198° South 101 116 4,000  Level Minneapolis Center
Wed 03:36:11 PM 47.1867 -94.1550 200° South 100 115 4,000  Level Minneapolis Center
Wed 03:37:14 PM 47.1550 -94.1703 198° South 100 115 4,000  Level Minneapolis Center
Wed 03:38:16 PM 47.1289 -94.1831 198° South 100 115 4,000  Level Minneapolis Center
Wed 03:39:18 PM 47.0972 -94.1986 198° South 99 114 4,000  Level Minneapolis Center
Wed 03:40:20 PM 47.0711 -94.2117 199° South 100 115 4,000  Level Minneapolis Center
Wed 03:42:00 PM 47.0241 -94.2321 196° South  Level FlightAware Approximate
Wed 03:49:00 PM 46.8268 -94.3200 199° South  Level FlightAware Approximate
Wed 03:50:00 PM 46.7990 -94.3339 199° South  Level FlightAware Approximate
Wed 03:51:00 PM 46.7711 -94.3478 199° South  Level FlightAware Approximate
Wed 03:52:00 PM 46.7433 -94.3617 199° South  Level FlightAware Approximate
Wed 03:53:00 PM 46.7167 -94.3667 180° South  Level FlightAware Approximate
Wed 03:54:00 PM 46.7248 -94.3817 180° South  Level Estimated
Wed 03:55:00 PM 46.7248 -94.3817 180° South  Level Estimated
Wed 03:56:00 PM 46.7248 -94.3817 180° South  Level Estimated
Wed 03:57:00 PM 46.7248 -94.3817 180° South  Level Estimated
Wed 03:58:00 PM 46.7248 -94.3817 180° South  Level Estimated
Wed 03:59:00 PM 46.7248 -94.3817 180° South  Level Estimated
Wed 04:00:00 PM 46.7248 -94.3817 180° South  Level Estimated
Wed 04:01:00 PM 46.7248 -94.3817 180° South  Level Estimated
Wed 04:02:00 PM 46.7248 -94.3817 180° South  Level Estimated
Wed 04:03:00 PM 46.7248 -94.3817 180° South  Level Estimated
Wed 04:04:00 PM 46.7248 -94.3817 180° South  Level Estimated
Wed 04:05:00 PM 46.7248 -94.3817 180° South  Level Estimated
Wed 04:06:00 PM 46.7248 -94.3817 180° South  Level Estimated
Wed 04:07:00 PM 46.7248 -94.3817 180° South  Level Estimated
Wed 04:08:00 PM 46.7248 -94.3817 180° South  Level Estimated
Wed 04:09:00 PM 46.7248 -94.3817 180° South  Level Estimated
Wed 04:10:00 PM 46.7248 -94.3817 180° South  Level Estimated

Login

Don't have an account? Register now (free) for customized features, flight alerts, and more!